Time;durP1;ratioP1;P1;durP2;ratioP2;P2;SDS_P1;SDS_P2;PMS_P1;PMS_P2;Temp;Humidity;BMP_temperature;BMP_pressure;BME280_temperature;BME280_humidity;BME280_pressure;Samples;Min_cycle;Max_cycle;Signal;HPM_P1;HPM_P2
2022/03/09 00:00:31;;;;;;;23.20;12.85;;;;;;;2.85;44.31;100373.72;4443531;32;33252;-76
2022/03/09 00:03:03;;;;;;;26.42;12.23;;;;;;;2.86;44.26;100378.12;4443641;32;31898;-75
2022/03/09 00:05:33;;;;;;;24.52;11.63;;;;;;;2.63;44.58;100367.56;4456550;32;33408;-75
2022/03/09 00:08:01;;;;;;;22.80;10.80;;;;;;;2.56;45.22;100379.13;4470142;32;34354;-75
2022/03/09 00:10:28;;;;;;;21.10;10.27;;;;;;;2.61;45.28;100374.12;4430947;32;32327;-76
2022/03/09 00:12:56;;;;;;;22.58;11.05;;;;;;;2.70;45.11;100378.69;4456119;32;32175;-75
2022/03/09 00:15:28;;;;;;;19.35;9.93;;;;;;;2.75;44.84;100384.53;4456591;32;34581;-75
2022/03/09 00:17:56;;;;;;;20.85;10.40;;;;;;;2.82;44.57;100388.41;4443078;32;32950;-75
2022/03/09 00:20:23;;;;;;;24.77;11.27;;;;;;;2.88;44.20;100393.25;4470626;32;34698;-75
2022/03/09 00:22:51;;;;;;;22.55;10.80;;;;;;;2.73;44.43;100397.38;4456407;32;33506;-75
2022/03/09 00:25:19;;;;;;;22.90;11.48;;;;;;;2.70;44.35;100391.38;4455879;32;34649;-75
2022/03/09 00:27:46;;;;;;;22.52;10.98;;;;;;;2.68;44.67;100394.25;4456185;32;35022;-75
2022/03/09 00:30:14;;;;;;;21.27;10.52;;;;;;;2.61;45.15;100395.81;4456372;32;34078;-75
2022/03/09 00:32:41;;;;;;;19.77;10.48;;;;;;;2.65;44.70;100389.97;4443049;32;32050;-75
2022/03/09 00:35:09;;;;;;;19.77;10.30;;;;;;;2.61;45.09;100387.66;4443568;32;33679;-75
2022/03/09 00:37:37;;;;;;;19.75;9.55;;;;;;;2.69;44.90;100395.09;4456455;32;34567;-75
2022/03/09 00:40:06;;;;;;;17.85;9.23;;;;;;;2.51;45.17;100397.66;4443634;32;34040;-75
2022/03/09 00:42:38;;;;;;;18.62;10.13;;;;;;;2.33;46.05;100399.34;4443342;32;33382;-75
2022/03/09 00:45:07;;;;;;;20.60;10.02;;;;;;;2.34;46.33;100390.22;4443640;32;33163;-75
2022/03/09 00:47:36;;;;;;;20.05;10.40;;;;;;;2.18;46.94;100386.19;4442764;32;33846;-75
2022/03/09 00:50:04;;;;;;;24.27;9.77;;;;;;;2.37;46.65;100381.81;4442637;32;32537;-75
2022/03/09 00:52:32;;;;;;;22.50;10.45;;;;;;;2.50;46.48;100385.13;4442983;32;34487;-75
2022/03/09 00:54:59;;;;;;;19.05;9.38;;;;;;;2.55;46.17;100378.28;4443018;32;34383;-75
2022/03/09 00:57:29;;;;;;;19.85;9.75;;;;;;;2.41;46.52;100380.53;4443022;32;32884;-76
2022/03/09 00:59:58;;;;;;;20.33;9.93;;;;;;;2.31;46.88;100370.53;4455891;32;32235;-75
2022/03/09 01:02:26;;;;;;;22.90;9.30;;;;;;;2.61;46.16;100376.84;4455703;32;32119;-75
2022/03/09 01:04:54;;;;;;;17.50;8.82;;;;;;;2.76;45.83;100375.41;4455593;32;33985;-75
2022/03/09 01:07:22;;;;;;;18.70;9.57;;;;;;;2.84;45.57;100359.31;4456332;32;35219;-75
2022/03/09 01:09:50;;;;;;;20.88;9.38;;;;;;;2.82;45.73;100360.44;4442905;32;33336;-75
2022/03/09 01:12:18;;;;;;;16.95;9.63;;;;;;;2.71;46.10;100371.41;4469467;32;34401;-75
2022/03/09 01:14:45;;;;;;;18.85;9.68;;;;;;;2.70;46.15;100367.00;4443144;32;33775;-75
2022/03/09 01:17:15;;;;;;;17.62;9.40;;;;;;;2.85;45.72;100344.75;4455736;32;34287;-75
2022/03/09 01:19:44;;;;;;;19.83;10.07;;;;;;;2.79;45.89;100345.31;4456233;32;34497;-75
2022/03/09 01:22:14;;;;;;;23.20;10.23;;;;;;;2.73;46.12;100348.59;4455761;32;33391;-75
2022/03/09 01:24:43;;;;;;;17.23;8.65;;;;;;;2.66;46.31;100352.87;4443994;32;33826;-75
2022/03/09 01:27:10;;;;;;;18.15;9.10;;;;;;;2.81;46.01;100348.75;4455684;32;32944;-75
2022/03/09 01:29:38;;;;;;;17.92;9.25;;;;;;;2.75;46.06;100351.16;4470342;32;34016;-75
2022/03/09 01:32:06;;;;;;;18.37;8.70;;;;;;;2.82;45.83;100347.75;4469991;32;33329;-75
2022/03/09 01:34:36;;;;;;;18.70;8.85;;;;;;;2.91;45.58;100346.88;4456139;32;33661;-75
2022/03/09 01:37:04;;;;;;;17.67;8.95;;;;;;;2.92;45.67;100350.44;4468834;32;35329;-75
2022/03/09 01:39:31;;;;;;;19.70;8.75;;;;;;;2.84;45.81;100345.75;4455361;32;34798;-75
2022/03/09 01:42:02;;;;;;;17.02;9.43;;;;;;;2.83;45.81;100348.59;4455797;32;34345;-75
2022/03/09 01:44:30;;;;;;;19.40;9.30;;;;;;;2.83;45.99;100354.88;4442773;32;32366;-75
2022/03/09 01:46:57;;;;;;;17.10;8.73;;;;;;;2.85;45.81;100366.44;4442354;32;33929;-75
2022/03/09 01:49:25;;;;;;;23.23;10.25;;;;;;;2.67;46.12;100372.69;4442017;32;33244;-75
2022/03/09 01:51:57;;;;;;;25.25;10.57;;;;;;;2.59;46.31;100373.44;4442805;32;34336;-75
2022/03/09 01:54:25;;;;;;;17.62;9.45;;;;;;;2.70;45.79;100375.97;4442021;32;32364;-75
2022/03/09 01:56:56;;;;;;;21.52;9.90;;;;;;;2.94;45.00;100378.28;4455656;32;34528;-75
2022/03/09 01:59:26;;;;;;;17.37;9.55;;;;;;;2.66;45.57;100379.97;4442785;32;34033;-75
2022/03/09 02:01:57;;;;;;;18.87;10.27;;;;;;;2.69;45.31;100385.13;4456214;32;34203;-75
2022/03/09 02:04:27;;;;;;;23.45;10.68;;;;;;;2.72;45.24;100379.41;4442590;32;32163;-75
2022/03/09 02:06:55;;;;;;;20.20;9.70;;;;;;;2.64;45.43;100377.41;4455711;32;34568;-75
2022/03/09 02:12:14;;;;;;;19.40;8.53;;;;;;;2.84;45.50;100381.00;4458055;32;34241;-75
2022/03/09 02:14:42;;;;;;;19.92;9.13;;;;;;;2.98;45.47;100394.13;4454338;32;32180;-75
2022/03/09 02:17:16;;;;;;;22.77;8.98;;;;;;;2.95;45.64;100382.69;4442515;32;32980;-75
2022/03/09 02:19:45;;;;;;;19.12;9.05;;;;;;;3.03;45.53;100384.69;4442180;32;33574;-75
2022/03/09 02:22:23;;;;;;;18.67;9.75;;;;;;;2.93;45.55;100380.13;4455244;32;33353;-75
2022/03/09 02:24:51;;;;;;;19.00;9.15;;;;;;;2.96;45.64;100368.16;4469136;32;33364;-75
2022/03/09 02:27:20;;;;;;;17.20;9.40;;;;;;;2.95;45.83;100367.28;4454623;32;34006;-75
2022/03/09 02:29:49;;;;;;;18.45;9.43;;;;;;;3.01;46.05;100370.44;4455156;32;34748;-75
2022/03/09 02:32:19;;;;;;;23.73;9.52;;;;;;;3.06;45.91;100376.28;4455332;32;33298;-75
2022/03/09 02:34:48;;;;;;;18.65;8.38;;;;;;;3.05;45.63;100371.84;4455268;32;33810;-75
2022/03/09 02:37:16;;;;;;;18.58;9.43;;;;;;;3.06;45.78;100376.28;4455138;32;35076;-75
2022/03/09 02:39:43;;;;;;;17.60;8.32;;;;;;;3.06;45.76;100374.41;4429458;32;32571;-75
2022/03/09 02:42:11;;;;;;;20.08;9.32;;;;;;;3.07;45.86;100370.72;4454933;32;33640;-75
2022/03/09 02:44:39;;;;;;;18.98;9.70;;;;;;;3.01;46.07;100375.84;4455143;32;33584;-75
2022/03/09 02:47:10;;;;;;;35.42;15.48;;;;;;;3.10;46.02;100378.56;4455411;32;34407;-75
2022/03/09 02:49:38;;;;;;;49.60;21.23;;;;;;;3.19;45.87;100376.84;4457086;32;33885;-75
2022/03/09 02:52:05;;;;;;;60.00;24.87;;;;;;;3.07;46.05;100378.84;4444416;32;33414;-75
2022/03/09 02:54:33;;;;;;;152.10;55.88;;;;;;;3.15;45.91;100391.69;4457068;32;33734;-75
2022/03/09 02:57:00;;;;;;;194.07;72.62;;;;;;;3.24;45.80;100390.81;4456914;32;34437;-75
2022/03/09 02:59:28;;;;;;;125.68;49.30;;;;;;;3.03;46.30;100399.09;4444545;32;34696;-75
2022/03/09 03:01:57;;;;;;;86.85;36.08;;;;;;;3.04;46.37;100394.53;4456436;32;32179;-75
2022/03/09 03:04:25;;;;;;;54.65;24.58;;;;;;;3.15;46.01;100397.09;4470867;32;34616;-75
2022/03/09 03:06:53;;;;;;;36.00;16.83;;;;;;;3.07;46.16;100386.97;4457029;32;34266;-75
2022/03/09 03:09:22;;;;;;;23.58;11.32;;;;;;;3.00;46.37;100383.13;4471091;32;34561;-75
2022/03/09 03:11:52;;;;;;;19.02;9.95;;;;;;;3.07;46.11;100373.41;4457000;32;34132;-75
2022/03/09 03:14:19;;;;;;;19.30;9.27;;;;;;;2.98;45.95;100360.72;4457066;32;33578;-75
2022/03/09 03:16:47;;;;;;;19.55;9.23;;;;;;;3.08;45.63;100355.28;4456738;32;32927;-75
2022/03/09 03:19:15;;;;;;;15.77;8.55;;;;;;;3.01;45.53;100356.88;4457242;32;34709;-75
2022/03/09 03:21:42;;;;;;;19.90;9.50;;;;;;;2.97;45.46;100348.16;4444493;32;33250;-75
2022/03/09 03:24:10;;;;;;;35.38;14.98;;;;;;;2.95;45.68;100353.72;4470841;32;33791;-75
2022/03/09 03:26:37;;;;;;;46.20;20.15;;;;;;;2.94;45.78;100368.28;4456925;32;34276;-75
2022/03/09 03:29:05;;;;;;;43.13;18.95;;;;;;;3.10;45.69;100366.84;4444204;32;34827;-75
2022/03/09 03:31:33;;;;;;;42.35;16.80;;;;;;;3.09;46.10;100354.28;4443828;32;32156;-75
2022/03/09 03:34:01;;;;;;;36.67;15.82;;;;;;;3.15;46.12;100364.56;4456181;32;33747;-76
2022/03/09 03:36:29;;;;;;;36.13;15.95;;;;;;;3.12;46.16;100362.13;4456854;32;34400;-76
2022/03/09 03:38:56;;;;;;;28.55;12.88;;;;;;;2.94;46.54;100356.59;4470907;32;33927;-75
2022/03/09 03:41:27;;;;;;;31.73;14.77;;;;;;;3.07;46.22;100356.28;4443765;32;33070;-75
2022/03/09 03:43:57;;;;;;;38.08;16.60;;;;;;;3.11;46.03;100364.00;4456841;32;33650;-75
2022/03/09 03:46:25;;;;;;;45.95;20.85;;;;;;;3.23;45.88;100362.84;4443710;32;32900;-75
2022/03/09 03:48:55;;;;;;;49.92;23.33;;;;;;;3.26;45.97;100361.66;4444567;32;33991;-75
2022/03/09 03:51:23;;;;;;;52.88;24.15;;;;;;;3.32;45.83;100369.22;4456723;32;34557;-75
2022/03/09 03:53:50;;;;;;;49.60;22.48;;;;;;;3.21;46.01;100361.28;4456735;32;33660;-75
2022/03/09 03:56:18;;;;;;;52.53;26.27;;;;;;;3.20;46.18;100373.97;4443991;32;35209;-75
2022/03/09 03:58:45;;;;;;;59.10;30.42;;;;;;;3.24;46.00;100374.53;4456323;32;33904;-75
2022/03/09 04:01:13;;;;;;;41.25;22.58;;;;;;;3.18;46.03;100370.56;4455839;32;33606;-75
2022/03/09 04:03:41;;;;;;;30.92;16.65;;;;;;;3.09;46.27;100378.69;4456677;32;33684;-75
2022/03/09 04:06:09;;;;;;;25.05;12.80;;;;;;;3.11;46.25;100369.41;4456564;32;34457;-76
2022/03/09 04:08:42;;;;;;;28.05;13.10;;;;;;;3.11;46.11;100372.13;4456491;32;34686;-75
2022/03/09 04:11:11;;;;;;;22.48;12.02;;;;;;;3.19;45.89;100369.56;4431297;32;32106;-77
2022/03/09 04:13:39;;;;;;;24.15;9.93;;;;;;;3.16;45.89;100367.13;4443595;32;33314;-75
2022/03/09 04:16:06;;;;;;;22.58;10.05;;;;;;;3.08;45.93;100364.28;4456784;32;35203;-75
2022/03/09 04:18:37;;;;;;;23.65;11.40;;;;;;;3.02;45.97;100350.44;4456571;32;34167;-75
2022/03/09 04:21:05;;;;;;;17.12;10.05;;;;;;;3.13;45.87;100363.84;4443870;32;34463;-76
2022/03/09 04:23:32;;;;;;;21.27;10.45;;;;;;;3.08;45.87;100347.16;4470432;32;33485;-76
2022/03/09 04:26:07;;;;;;;22.13;10.13;;;;;;;3.16;45.78;100345.44;4457026;32;34412;-75
2022/03/09 04:28:38;;;;;;;21.15;10.32;;;;;;;3.21;45.69;100342.28;4456639;32;33940;-76
2022/03/09 04:31:07;;;;;;;28.55;15.63;;;;;;;3.26;45.59;100358.94;4470765;32;33589;-75
2022/03/09 04:33:34;;;;;;;29.90;15.90;;;;;;;3.25;45.69;100359.97;4456695;32;33697;-75
2022/03/09 04:36:04;;;;;;;27.30;14.02;;;;;;;3.33;45.63;100351.09;4443501;32;32926;-76
2022/03/09 04:38:32;;;;;;;22.75;12.30;;;;;;;3.36;45.49;100351.66;4456555;32;33036;-76
2022/03/09 04:41:02;;;;;;;19.90;10.35;;;;;;;3.25;45.61;100359.97;4456325;32;33454;-76
2022/03/09 04:43:33;;;;;;;21.17;10.52;;;;;;;3.34;45.69;100366.34;4443619;32;33347;-76
2022/03/09 04:46:01;;;;;;;27.75;14.27;;;;;;;3.34;45.96;100372.66;4456254;32;35169;-76
2022/03/09 04:48:29;;;;;;;23.45;12.20;;;;;;;3.15;46.32;100361.84;4456361;32;33464;-75
2022/03/09 04:50:56;;;;;;;20.33;10.45;;;;;;;3.08;46.33;100364.28;4456292;32;33672;-75
2022/03/09 04:53:24;;;;;;;26.12;11.43;;;;;;;3.04;46.08;100362.00;4443446;32;33109;-75
2022/03/09 04:55:55;;;;;;;23.40;10.25;;;;;;;3.06;45.88;100366.28;4456045;32;34384;-75
2022/03/09 04:58:25;;;;;;;22.33;10.32;;;;;;;3.10;45.84;100377.69;4456250;32;34534;-75
2022/03/09 05:00:56;;;;;;;22.02;10.50;;;;;;;3.19;45.76;100372.28;4442785;32;33493;-75
2022/03/09 05:03:23;;;;;;;20.88;10.80;;;;;;;3.41;45.51;100384.62;4456085;32;33436;-75
2022/03/09 05:05:51;;;;;;;22.35;10.65;;;;;;;3.20;45.77;100376.69;4443302;32;33321;-75
2022/03/09 05:08:19;;;;;;;23.42;11.02;;;;;;;3.20;45.95;100363.13;4443574;32;33859;-75
2022/03/09 05:10:47;;;;;;;21.62;11.93;;;;;;;3.26;45.99;100361.66;4455459;32;32935;-75
2022/03/09 05:13:14;;;;;;;21.23;10.45;;;;;;;3.31;45.89;100345.81;4443130;32;33198;-75
2022/03/09 05:15:42;;;;;;;20.30;9.77;;;;;;;3.22;46.34;100344.00;4470016;32;34311;-76
2022/03/09 05:18:12;;;;;;;20.83;9.68;;;;;;;3.25;46.36;100341.00;4470394;32;34143;-75
2022/03/09 05:20:40;;;;;;;19.77;9.25;;;;;;;3.35;46.26;100349.09;4443748;32;34537;-76
2022/03/09 05:23:07;;;;;;;17.75;9.60;;;;;;;3.39;46.31;100350.50;4455696;32;34451;-75
2022/03/09 05:25:39;;;;;;;18.00;9.32;;;;;;;3.47;45.98;100356.06;4443250;32;32976;-75
2022/03/09 05:28:07;;;;;;;17.98;8.88;;;;;;;3.40;46.11;100358.50;4455876;32;33832;-76
2022/03/09 05:30:37;;;;;;;17.15;8.65;;;;;;;3.35;46.15;100358.06;4443394;32;32060;-75
2022/03/09 05:33:05;;;;;;;19.92;10.25;;;;;;;3.43;45.95;100363.63;4456002;32;33799;-75
2022/03/09 05:35:32;;;;;;;17.92;9.10;;;;;;;3.40;46.13;100358.50;4469900;32;34923;-75
2022/03/09 05:38:00;;;;;;;16.92;8.90;;;;;;;3.50;45.89;100362.03;4455590;32;33423;-75
2022/03/09 05:40:28;;;;;;;19.70;9.63;;;;;;;3.63;45.68;100368.00;4443019;32;33495;-77
2022/03/09 05:42:56;;;;;;;18.42;8.95;;;;;;;3.64;45.82;100367.00;4455324;32;33636;-75
2022/03/09 05:45:26;;;;;;;20.15;9.70;;;;;;;3.53;46.12;100364.47;4468954;32;34577;-75
2022/03/09 05:47:57;;;;;;;21.98;9.52;;;;;;;3.52;46.04;100361.88;4469186;32;33582;-75
2022/03/09 05:50:24;;;;;;;17.95;8.55;;;;;;;3.42;44.84;100361.91;4435529;32;32003;-75
2022/03/09 05:52:53;;;;;;;15.85;8.35;;;;;;;3.39;44.16;100372.19;4460338;32;33958;-75
2022/03/09 05:55:21;;;;;;;23.50;9.68;;;;;;;3.57;43.84;100376.72;4452929;32;34104;-76
2022/03/09 05:57:48;;;;;;;20.65;9.80;;;;;;;3.80;43.29;100384.53;4454994;32;33609;-75
2022/03/09 06:00:16;;;;;;;20.12;9.63;;;;;;;3.81;43.56;100389.81;4455145;32;31919;-76
2022/03/09 06:02:48;;;;;;;19.60;9.73;;;;;;;3.63;43.51;100403.28;4467405;32;33858;-76
2022/03/09 06:05:22;;;;;;;18.10;9.13;;;;;;;3.70;43.39;100413.56;4468567;32;34719;-75
2022/03/09 06:07:50;;;;;;;21.58;9.60;;;;;;;3.81;43.28;100416.09;4469629;32;34918;-76
2022/03/09 06:10:18;;;;;;;17.90;10.20;;;;;;;3.89;43.19;100419.78;4455435;32;33650;-76
2022/03/09 06:12:45;;;;;;;17.75;8.98;;;;;;;4.00;42.33;100431.44;4446251;32;32141;-75
2022/03/09 06:15:13;;;;;;;22.42;10.85;;;;;;;4.08;42.47;100426.97;4455660;32;34344;-75
2022/03/09 06:17:46;;;;;;;22.73;11.88;;;;;;;4.11;42.29;100426.69;4455507;32;34036;-75
2022/03/09 06:20:22;;;;;;;20.77;10.73;;;;;;;4.51;53.05;100428.22;4439862;32;32270;-76
2022/03/09 06:22:53;;;;;;;19.75;10.82;;;;;;;4.37;43.95;100421.41;4441245;32;32167;-76
2022/03/09 06:25:21;;;;;;;23.52;10.90;;;;;;;4.36;42.60;100427.00;4455431;32;34940;-76
2022/03/09 06:27:51;;;;;;;18.50;9.90;;;;;;;4.24;43.40;100426.34;4455366;32;33775;-76
2022/03/09 06:30:27;;;;;;;21.62;11.15;;;;;;;4.25;42.82;100426.19;4456287;32;33449;-76
2022/03/09 06:32:55;;;;;;;22.52;11.77;;;;;;;4.31;42.38;100430.16;4454013;32;33443;-76
2022/03/09 06:35:23;;;;;;;23.95;11.68;;;;;;;4.15;42.57;100429.94;4455667;32;34246;-76
2022/03/09 06:37:53;;;;;;;20.85;10.05;;;;;;;4.26;42.33;100417.03;4443942;32;33506;-76
2022/03/09 06:40:21;;;;;;;22.77;11.30;;;;;;;4.29;42.42;100424.88;4457113;32;34400;-75
2022/03/09 06:42:49;;;;;;;22.60;11.52;;;;;;;4.46;42.02;100420.50;4456605;32;33407;-76
2022/03/09 06:45:29;;;;;;;23.27;11.15;;;;;;;4.60;41.75;100422.69;4444567;32;33459;-76
2022/03/09 06:48:01;;;;;;;26.77;11.68;;;;;;;4.52;41.89;100427.19;4457041;32;32522;-78
2022/03/09 06:50:29;;;;;;;20.83;11.05;;;;;;;4.46;41.99;100428.66;4457268;32;33208;-76
2022/03/09 06:52:56;;;;;;;20.83;11.05;;;;;;;4.27;44.12;100437.75;4444352;32;34593;-76
2022/03/09 06:55:24;;;;;;;19.80;10.40;;;;;;;4.30;42.89;100437.47;4471004;32;34317;-77
2022/03/09 06:57:55;;;;;;;21.37;11.43;;;;;;;4.34;42.61;100420.84;4444272;32;33969;-77
2022/03/09 07:00:23;;;;;;;23.15;11.60;;;;;;;4.44;42.54;100427.09;4444701;32;34353;-77
2022/03/09 07:02:50;;;;;;;22.27;12.05;;;;;;;4.61;42.11;100437.13;4456990;32;33740;-78
2022/03/09 07:05:20;;;;;;;24.75;11.75;;;;;;;4.77;42.20;100448.19;4457262;32;34205;-78
2022/03/09 07:07:48;;;;;;;22.60;12.30;;;;;;;4.85;41.77;100444.72;4431512;32;33374;-78
2022/03/09 07:10:17;;;;;;;25.85;11.80;;;;;;;5.01;41.41;100435.88;4431835;32;32035;-78
2022/03/09 07:12:48;;;;;;;25.65;12.13;;;;;;;5.04;41.44;100439.12;4444592;32;32225;-78
2022/03/09 07:15:16;;;;;;;22.45;11.98;;;;;;;5.20;41.27;100435.72;4444807;32;34545;-78
2022/03/09 07:17:46;;;;;;;24.63;12.85;;;;;;;5.27;40.60;100439.50;4444274;32;32495;-78
2022/03/09 07:20:19;;;;;;;25.27;12.73;;;;;;;4.74;42.07;100445.78;4444879;32;33388;-78
2022/03/09 07:22:49;;;;;;;25.15;13.75;;;;;;;4.69;41.95;100449.97;4444350;32;32270;-78
2022/03/09 07:25:19;;;;;;;27.50;13.73;;;;;;;5.04;41.90;100462.75;4456860;32;35463;-78
2022/03/09 07:27:52;;;;;;;24.65;13.38;;;;;;;4.73;42.07;100468.53;4457106;32;34780;-78
2022/03/09 07:30:25;;;;;;;24.25;12.85;;;;;;;4.03;43.96;100472.72;4432077;32;33116;-78
2022/03/09 07:32:58;;;;;;;33.15;15.63;;;;;;;4.17;43.78;100477.69;4457164;32;34360;-78
2022/03/09 07:35:28;;;;;;;25.92;14.02;;;;;;;4.42;43.31;100481.59;4443122;32;34225;-78
2022/03/09 07:37:58;;;;;;;23.48;12.48;;;;;;;4.63;42.81;100465.00;4457423;32;33943;-77
2022/03/09 07:40:28;;;;;;;25.52;13.90;;;;;;;4.68;42.46;100456.41;4444329;32;31956;-78
2022/03/09 07:43:01;;;;;;;27.65;14.15;;;;;;;4.93;42.01;100444.78;4444222;32;32285;-78
2022/03/09 07:45:33;;;;;;;29.20;14.13;;;;;;;5.15;41.77;100432.59;4444048;32;32852;-78
2022/03/09 07:48:01;;;;;;;25.40;13.13;;;;;;;4.89;42.17;100413.47;4444376;32;33966;-78
2022/03/09 07:50:28;;;;;;;25.80;13.68;;;;;;;4.88;42.32;100418.06;4443906;32;32021;-78
2022/03/09 07:52:59;;;;;;;26.25;13.35;;;;;;;5.29;41.73;100415.69;4444003;32;32067;-78
2022/03/09 07:55:26;;;;;;;30.62;13.85;;;;;;;5.21;41.94;100424.63;4443819;32;33374;-78
2022/03/09 07:57:56;;;;;;;27.42;14.90;;;;;;;5.36;41.84;100433.09;4444398;32;33912;-78
2022/03/09 08:00:29;;;;;;;25.98;14.13;;;;;;;5.41;41.54;100430.75;4431456;32;32156;-78
2022/03/09 08:03:00;;;;;;;26.77;13.90;;;;;;;4.93;42.44;100436.63;4443924;32;32183;-78
2022/03/09 08:05:50;;;;;;;22.05;13.05;;;;;;;5.10;42.41;100432.22;4435906;32;32833;-78
2022/03/09 08:08:18;;;;;;;28.52;13.50;;;;;;;5.46;41.91;100431.16;4444162;32;33960;-78
2022/03/09 08:10:49;;;;;;;27.25;14.32;;;;;;;5.38;42.07;100433.81;4431057;32;32229;-79
2022/03/09 08:13:17;;;;;;;27.48;14.05;;;;;;;5.40;42.08;100430.91;4444256;32;34553;-78
2022/03/09 08:15:51;;;;;;;41.88;21.75;;;;;;;5.71;41.82;100431.34;4431103;32;34228;-78
2022/03/09 08:18:18;;;;;;;27.45;14.82;;;;;;;5.80;42.02;100424.94;4444101;32;33924;-78
2022/03/09 08:20:49;;;;;;;27.65;15.10;;;;;;;5.78;42.41;100422.38;4443729;32;32007;-78
2022/03/09 08:23:22;;;;;;;27.30;15.00;;;;;;;6.04;41.45;100425.09;4444422;32;33840;-78
2022/03/09 08:25:53;;;;;;;29.25;14.87;;;;;;;5.98;41.01;100425.72;4431262;32;32939;-78
2022/03/09 08:28:26;;;;;;;26.75;14.60;;;;;;;6.19;40.96;100431.66;4443614;32;34655;-78
2022/03/09 08:30:54;;;;;;;27.45;14.85;;;;;;;5.70;41.71;100414.16;4443642;32;32236;-78
2022/03/09 08:33:22;;;;;;;27.52;15.35;;;;;;;5.85;41.95;100404.34;4443702;32;33281;-78
2022/03/09 08:35:52;;;;;;;29.10;14.38;;;;;;;5.55;42.39;100407.56;4430827;32;33018;-78
2022/03/09 08:38:23;;;;;;;27.85;15.15;;;;;;;5.95;41.64;100407.84;4444080;32;34805;-78
2022/03/09 08:40:52;;;;;;;28.10;13.75;;;;;;;5.89;41.72;100410.34;4431265;32;33120;-78
2022/03/09 08:43:24;;;;;;;27.10;14.55;;;;;;;6.00;41.75;100412.81;4456256;32;34555;-78
2022/03/09 08:45:52;;;;;;;24.92;13.23;;;;;;;6.40;41.09;100397.66;4456187;32;34381;-78
2022/03/09 08:48:26;;;;;;;27.85;14.25;;;;;;;6.26;40.67;100405.44;4443415;32;32526;-78
2022/03/09 08:50:59;;;;;;;28.08;14.65;;;;;;;6.51;40.62;100408.25;4443898;32;31825;-79
2022/03/09 08:53:29;;;;;;;28.12;15.13;;;;;;;6.87;39.94;100398.81;4456819;32;33864;-78
2022/03/09 08:55:59;;;;;;;26.98;14.85;;;;;;;7.10;39.47;100404.47;4443753;32;35321;-78
2022/03/09 08:58:30;;;;;;;26.15;14.73;;;;;;;7.06;39.82;100396.78;4443698;32;33952;-78
2022/03/09 09:01:02;;;;;;;22.10;12.93;;;;;;;7.24;39.18;100392.84;4443196;31;32618;-78
2022/03/09 09:03:36;;;;;;;24.10;14.27;;;;;;;7.26;39.00;100395.41;4431672;32;33242;-79
2022/03/09 09:06:10;;;;;;;26.33;13.82;;;;;;;7.43;39.06;100386.19;4443929;32;34693;-78
2022/03/09 09:08:53;;;;;;;23.12;13.75;;;;;;;7.02;39.27;100400.88;4457409;32;33654;-79
2022/03/09 09:11:23;;;;;;;23.38;13.07;;;;;;;6.94;39.81;100388.06;4443719;32;33038;-79
2022/03/09 09:13:54;;;;;;;20.95;13.45;;;;;;;7.38;38.88;100374.06;4456336;32;33935;-79
2022/03/09 09:16:23;;;;;;;24.33;13.80;;;;;;;7.75;38.63;100381.72;4443508;32;32978;-79
2022/03/09 09:18:56;;;;;;;20.83;12.98;;;;;;;7.84;38.41;100378.78;4443648;32;34044;-80
2022/03/09 09:21:24;;;;;;;22.85;13.62;;;;;;;8.27;37.89;100366.50;4443898;32;33572;-80
2022/03/09 09:23:55;;;;;;;25.15;13.90;;;;;;;8.34;37.45;100369.41;4443781;32;33714;-80
2022/03/09 09:26:26;;;;;;;21.08;12.32;;;;;;;8.21;37.77;100359.00;4444033;32;34342;-80
2022/03/09 09:29:20;;;;;;;19.65;12.63;;;;;;;8.58;37.04;100365.69;4435130;32;32469;-80
2022/03/09 09:31:53;;;;;;;24.70;12.80;;;;;;;8.84;36.89;100366.22;4456666;32;33460;-80
2022/03/09 09:34:24;;;;;;;22.60;13.20;;;;;;;8.56;36.89;100365.00;4443387;32;32243;-80
2022/03/09 09:36:54;;;;;;;21.85;13.30;;;;;;;9.07;36.42;100365.38;4443240;32;33855;-80
2022/03/09 09:39:28;;;;;;;20.65;12.88;;;;;;;8.35;37.46;100362.06;4456236;32;33564;-80
2022/03/09 09:41:58;;;;;;;24.45;12.52;;;;;;;8.35;37.49;100367.53;4443347;32;32789;-80
2022/03/09 09:44:31;;;;;;;23.77;11.90;;;;;;;8.94;37.20;100367.84;4444080;32;32207;-80
2022/03/09 09:46:59;;;;;;;21.20;13.30;;;;;;;9.42;36.18;100367.44;4431206;32;33399;-80
2022/03/09 09:49:36;;;;;;;22.23;12.93;;;;;;;9.55;35.87;100361.34;4443249;32;33904;-80
2022/03/09 09:52:05;;;;;;;21.83;13.27;;;;;;;10.03;35.26;100372.81;4443162;32;32041;-80
2022/03/09 09:54:33;;;;;;;22.02;12.90;;;;;;;10.77;34.19;100368.94;4443272;32;33768;-80
2022/03/09 09:57:06;;;;;;;23.65;13.15;;;;;;;11.24;33.51;100370.28;4442095;32;34193;-80
2022/03/09 09:59:38;;;;;;;24.10;13.23;;;;;;;10.88;33.32;100362.09;4443029;32;32537;-80
2022/03/09 10:02:07;;;;;;;22.27;12.48;;;;;;;10.68;33.77;100361.88;4430040;32;32537;-81
2022/03/09 10:04:41;;;;;;;20.40;12.13;;;;;;;10.94;33.22;100363.22;4442995;32;32919;-80
2022/03/09 10:07:09;;;;;;;17.02;11.02;;;;;;;10.85;33.41;100357.84;4442983;32;33823;-80
2022/03/09 10:09:42;;;;;;;19.05;10.82;;;;;;;11.35;33.16;100361.50;4443151;32;34029;-80
2022/03/09 10:12:13;;;;;;;21.48;11.40;;;;;;;10.96;32.68;100355.66;4443034;32;33546;-81
2022/03/09 10:14:51;;;;;;;15.95;9.63;;;;;;;11.30;33.04;100349.41;4443408;32;33644;-81
2022/03/09 10:17:32;;;;;;;16.92;10.60;;;;;;;11.46;32.06;100344.47;4430078;32;33059;-81
2022/03/09 10:20:09;;;;;;;18.50;10.38;;;;;;;11.96;31.88;100331.53;4430337;32;32655;-80
2022/03/09 10:22:45;;;;;;;19.60;11.32;;;;;;;12.03;31.47;100334.31;4455477;32;33696;-81
2022/03/09 10:25:23;;;;;;;17.08;10.63;;;;;;;12.31;31.83;100343.38;4444382;32;34379;-81
2022/03/09 10:27:56;;;;;;;19.12;10.50;;;;;;;12.38;31.12;100337.88;4442797;32;32850;-81
2022/03/09 10:30:34;;;;;;;16.42;10.77;;;;;;;12.83;30.66;100341.87;4442745;32;33625;-80
2022/03/09 10:33:09;;;;;;;15.88;9.82;;;;;;;12.11;31.66;100331.41;4442699;32;32149;-81
2022/03/09 10:35:43;;;;;;;17.83;10.68;;;;;;;12.71;31.30;100332.50;4455498;32;34531;-81
2022/03/09 10:38:16;;;;;;;17.97;10.33;;;;;;;11.83;31.57;100323.19;4430209;32;32616;-81
2022/03/09 10:40:52;;;;;;;20.00;10.38;;;;;;;12.42;31.36;100311.63;4442554;32;32218;-80
2022/03/09 10:43:28;;;;;;;16.20;10.85;;;;;;;12.52;31.21;100309.34;4442396;32;33603;-80
2022/03/09 10:45:59;;;;;;;18.70;10.18;;;;;;;12.37;31.11;100308.66;4442614;32;33667;-80
2022/03/09 10:48:45;;;;;;;18.02;10.88;;;;;;;13.03;31.14;100297.78;4442084;32;33030;-80
2022/03/09 10:51:30;;;;;;;16.98;10.65;;;;;;;13.55;30.56;100293.41;4442301;32;33476;-81
2022/03/09 10:54:25;;;;;;;16.65;10.15;;;;;;;13.18;30.72;100290.22;4455544;32;33425;-80
2022/03/09 10:57:04;;;;;;;16.26;10.36;;;;;;;13.46;30.04;100278.97;4340906;32;2951378;-80
2022/03/09 10:59:44;;;;;;;21.23;11.52;;;;;;;12.93;30.69;100280.84;4441547;32;33057;-80
2022/03/09 11:02:12;;;;;;;20.02;11.82;;;;;;;12.72;30.92;100279.97;4442246;32;34688;-81
2022/03/09 11:04:42;;;;;;;19.55;11.07;;;;;;;12.47;31.65;100287.94;4442584;32;32094;-81
2022/03/09 11:07:19;;;;;;;19.55;11.60;;;;;;;11.68;32.73;100283.97;4430299;32;32256;-81
2022/03/09 11:09:48;;;;;;;16.02;10.07;;;;;;;12.53;31.54;100291.78;4443581;32;32912;-80
2022/03/09 11:12:21;;;;;;;21.98;12.50;;;;;;;12.38;31.59;100289.19;4445651;32;33953;-80
2022/03/09 11:14:52;;;;;;;20.88;12.55;;;;;;;12.72;31.38;100271.69;4431613;32;33213;-80
2022/03/09 11:17:22;;;;;;;18.35;12.10;;;;;;;12.85;31.49;100277.25;4444040;32;33651;-81
2022/03/09 11:19:50;;;;;;;19.23;11.73;;;;;;;13.34;30.96;100267.75;4444394;32;34398;-81
2022/03/09 11:22:20;;;;;;;21.35;12.82;;;;;;;12.77;31.57;100279.34;4457042;32;33958;-80
2022/03/09 11:24:48;;;;;;;20.15;11.65;;;;;;;12.48;31.79;100275.03;4457291;32;33636;-80
2022/03/09 11:27:19;;;;;;;20.80;11.73;;;;;;;12.01;32.76;100274.00;4431845;32;32177;-81
2022/03/09 11:29:54;;;;;;;22.67;13.75;;;;;;;12.56;32.32;100266.56;4443820;32;33967;-80
2022/03/09 11:32:35;;;;;;;25.02;15.98;;;;;;;12.62;32.84;100265.75;4457335;32;33826;-80